Time;durP1;ratioP1;P1;durP2;ratioP2;P2;SDS_P1;SDS_P2;PMS_P1;PMS_P2;Temp;Humidity;BMP_temperature;BMP_pressure;BME280_temperature;BME280_humidity;BME280_pressure;Samples;Min_cycle;Max_cycle;Signal;HPM_P1;HPM_P2
2022/12/16 00:00:17;;;;;;;56.78;33.65;;;;;;;-8.08;66.67;100447.63;680487;29;1021;-77
2022/12/16 00:00:38;;;;;;;55.55;33.80;;;;;;;-8.00;66.71;100462.81;680392;29;1018;-77
2022/12/16 00:01:11;;;;;;;58.10;34.20;;;;;;;-8.03;66.59;100464.16;680778;29;1029;-77
2022/12/16 00:01:33;;;;;;;61.03;33.88;;;;;;;-7.99;66.38;100453.59;684366;28;1153;-77
2022/12/16 00:01:54;;;;;;;60.05;33.42;;;;;;;-8.02;66.54;100446.56;680320;29;1976;-77
2022/12/16 00:02:14;;;;;;;63.80;34.17;;;;;;;-8.08;66.50;100440.03;682987;29;1057;-77
2022/12/16 00:02:35;;;;;;;61.92;34.38;;;;;;;-8.05;66.48;100456.44;682981;29;1256;-77
2022/12/16 00:02:59;;;;;;;65.03;34.42;;;;;;;-8.08;66.09;100453.56;683066;29;1142;-77
2022/12/16 00:03:19;;;;;;;62.45;33.72;;;;;;;-8.15;66.44;100441.97;683121;29;1389;-77
2022/12/16 00:03:45;;;;;;;62.77;34.43;;;;;;;-8.11;66.49;100458.34;679553;29;1206;-77
2022/12/16 00:04:06;;;;;;;58.22;33.28;;;;;;;-8.13;66.41;100447.19;677853;29;1116;-77
2022/12/16 00:04:26;;;;;;;53.13;31.85;;;;;;;-8.08;66.66;100458.63;681642;29;1186;-77
2022/12/16 00:04:47;;;;;;;53.03;31.37;;;;;;;-8.15;66.46;100447.03;679072;29;1117;-77
2022/12/16 00:05:08;;;;;;;55.83;32.10;;;;;;;-8.10;66.46;100450.00;680287;29;1174;-77
2022/12/16 00:05:28;;;;;;;60.13;33.40;;;;;;;-8.03;66.51;100456.56;683036;28;1017;-77
2022/12/16 00:05:49;;;;;;;59.72;33.13;;;;;;;-8.00;66.23;100447.63;683056;29;996;-77
2022/12/16 00:06:09;;;;;;;56.63;32.58;;;;;;;-7.99;66.51;100458.66;677758;29;1097;-77
2022/12/16 00:06:32;;;;;;;57.70;32.50;;;;;;;-8.01;66.58;100450.91;677731;29;1254;-77
2022/12/16 00:06:53;;;;;;;57.55;32.70;;;;;;;-8.02;66.10;100443.16;677547;29;1159;-77
2022/12/16 00:07:13;;;;;;;57.47;32.95;;;;;;;-8.02;66.23;100443.16;677775;29;997;-77
2022/12/16 00:07:34;;;;;;;54.17;32.58;;;;;;;-8.09;66.42;100436.59;677628;29;1377;-77
2022/12/16 00:07:54;;;;;;;56.77;33.60;;;;;;;-8.14;66.43;100438.69;680448;29;1092;-77
2022/12/16 00:08:15;;;;;;;58.63;34.38;;;;;;;-8.08;66.47;100460.28;682980;29;1298;-77
2022/12/16 00:08:38;;;;;;;56.15;33.88;;;;;;;-8.16;66.34;100441.81;682998;29;1103;-77
2022/12/16 00:08:59;;;;;;;56.78;33.62;;;;;;;-8.15;66.18;100456.25;677764;29;876;-77
2022/12/16 00:09:20;;;;;;;57.63;32.78;;;;;;;-8.20;66.27;100449.88;677832;29;1089;-77
2022/12/16 00:09:40;;;;;;;57.17;31.70;;;;;;;-8.20;66.42;100450.75;680383;29;1042;-77
2022/12/16 00:10:01;;;;;;;55.00;30.87;;;;;;;-8.16;66.46;100457.00;677820;29;1229;-77
2022/12/16 00:10:22;;;;;;;57.93;32.17;;;;;;;-8.23;66.62;100447.00;677732;29;1223;-77
2022/12/16 00:10:51;;;;;;;62.00;33.67;;;;;;;-8.20;66.48;100453.28;678976;29;1446;-77
2022/12/16 00:11:13;;;;;;;63.25;33.65;;;;;;;-8.21;66.56;100450.63;674983;29;1025;-77
2022/12/16 00:11:33;;;;;;;57.50;33.25;;;;;;;-8.22;65.97;100453.84;672477;29;1237;-77
2022/12/16 00:11:54;;;;;;;59.92;33.00;;;;;;;-8.21;66.74;100450.63;674058;29;917;-77
2022/12/16 00:12:14;;;;;;;60.38;32.30;;;;;;;-8.23;66.29;100455.50;675086;29;1041;-77
2022/12/16 00:12:35;;;;;;;62.60;32.72;;;;;;;-8.23;66.43;100447.00;676495;29;1265;-77
2022/12/16 00:12:56;;;;;;;60.80;33.30;;;;;;;-8.19;66.56;100456.72;677719;29;1096;-77
2022/12/16 00:13:16;;;;;;;59.40;34.65;;;;;;;-8.10;66.48;100464.31;675342;29;1073;-77
2022/12/16 00:13:41;;;;;;;60.20;34.80;;;;;;;-8.15;66.36;100461.31;674819;29;1308;-77
2022/12/16 00:14:02;;;;;;;61.30;34.30;;;;;;;-8.17;66.29;100458.66;675122;29;1337;-77
2022/12/16 00:14:22;;;;;;;60.93;33.73;;;;;;;-8.18;66.53;100455.97;672577;29;1371;-77
2022/12/16 00:14:43;;;;;;;62.33;34.17;;;;;;;-8.13;66.57;100454.78;672546;29;999;-78
2022/12/16 00:15:04;;;;;;;61.70;34.75;;;;;;;-8.08;66.26;100452.69;672229;29;1175;-77
2022/12/16 00:15:24;;;;;;;57.40;34.50;;;;;;;-8.05;66.31;100464.03;673440;29;1173;-77
2022/12/16 00:15:48;;;;;;;56.80;33.70;;;;;;;-8.05;66.34;100458.03;675593;29;1055;-77
2022/12/16 00:16:11;;;;;;;59.08;33.38;;;;;;;-8.05;66.30;100453.88;675747;29;1726;-77
2022/12/16 00:16:32;;;;;;;59.67;33.08;;;;;;;-8.10;66.29;100444.06;675057;29;1220;-77
2022/12/16 00:16:52;;;;;;;57.05;33.35;;;;;;;-8.14;66.20;100436.16;672253;29;1136;-77
2022/12/16 00:17:13;;;;;;;56.23;32.93;;;;;;;-8.12;66.06;100448.06;672663;29;997;-77
2022/12/16 00:17:35;;;;;;;57.85;34.05;;;;;;;-8.17;66.34;100450.16;672443;29;1048;-77
2022/12/16 00:17:55;;;;;;;60.30;34.42;;;;;;;-8.18;66.14;100450.91;672678;29;1077;-77
2022/12/16 00:18:18;;;;;;;60.23;34.23;;;;;;;-8.20;66.36;100447.34;673205;29;1142;-77
2022/12/16 00:18:39;;;;;;;58.63;32.05;;;;;;;-8.22;66.59;100444.63;677609;29;1192;-78
2022/12/16 00:19:00;;;;;;;54.78;31.20;;;;;;;-8.18;66.85;100448.38;675917;29;778;-77
2022/12/16 00:19:20;;;;;;;54.37;31.10;;;;;;;-8.20;66.30;100444.81;674849;29;1312;-77
2022/12/16 00:19:41;;;;;;;52.72;31.67;;;;;;;-8.22;66.81;100441.19;677444;29;1935;-77
2022/12/16 00:20:03;;;;;;;52.70;32.03;;;;;;;-8.19;66.54;100454.19;680538;29;927;-77
2022/12/16 00:20:23;;;;;;;57.38;32.72;;;;;;;-8.24;66.76;100435.09;683017;29;1284;-77
2022/12/16 00:20:50;;;;;;;59.73;33.77;;;;;;;-8.10;67.06;100460.13;680319;29;1110;-77
2022/12/16 00:21:11;;;;;;;59.22;33.25;;;;;;;-8.15;66.76;100436.00;677647;29;1098;-77
2022/12/16 00:21:32;;;;;;;59.20;33.15;;;;;;;-8.07;66.35;100455.34;675165;29;1007;-77
2022/12/16 00:21:52;;;;;;;60.93;33.87;;;;;;;-8.05;66.43;100446.28;672594;29;1172;-77
2022/12/16 00:22:13;;;;;;;67.05;34.35;;;;;;;-8.08;66.03;100442.56;675062;29;1539;-78
2022/12/16 00:22:33;;;;;;;63.93;33.17;;;;;;;-8.07;66.24;100447.75;675194;29;1086;-77
2022/12/16 00:22:54;;;;;;;61.90;32.10;;;;;;;-8.13;66.61;100442.13;675202;29;1101;-77
2022/12/16 00:23:15;;;;;;;55.88;31.20;;;;;;;-8.16;66.33;100444.34;675346;29;1490;-77
2022/12/16 00:23:37;;;;;;;54.15;31.13;;;;;;;-8.10;66.56;100462.66;677882;29;1073;-77
2022/12/16 00:23:58;;;;;;;56.50;31.40;;;;;;;-8.20;66.33;100440.59;678446;29;863;-77
2022/12/16 00:24:19;;;;;;;57.77;31.57;;;;;;;-8.20;66.58;100439.72;678390;29;1073;-77
2022/12/16 00:24:39;;;;;;;61.13;32.43;;;;;;;-8.13;66.66;100457.31;680347;29;1122;-77
2022/12/16 00:25:00;;;;;;;61.17;32.58;;;;;;;-8.21;66.44;100440.47;677753;29;1424;-78
2022/12/16 00:25:20;;;;;;;59.07;32.50;;;;;;;-8.16;66.68;100450.31;677742;29;1187;-77
2022/12/16 00:25:42;;;;;;;57.73;32.33;;;;;;;-8.11;66.64;100447.31;677660;29;1471;-77
2022/12/16 00:26:03;;;;;;;56.97;32.13;;;;;;;-8.19;66.51;100434.78;680113;29;1853;-77
2022/12/16 00:26:24;;;;;;;54.70;31.33;;;;;;;-8.11;66.13;100452.38;677653;29;1290;-77
2022/12/16 00:26:44;;;;;;;56.55;31.17;;;;;;;-8.14;66.26;100447.94;680191;29;989;-78
2022/12/16 00:27:05;;;;;;;53.38;30.63;;;;;;;-8.22;66.44;100431.06;680331;29;1001;-77
2022/12/16 00:27:26;;;;;;;55.78;30.52;;;;;;;-8.18;66.53;100445.84;672337;29;1172;-77
2022/12/16 00:27:46;;;;;;;55.60;30.73;;;;;;;-8.14;66.42;100447.94;674976;29;1071;-77
2022/12/16 00:28:08;;;;;;;58.05;31.05;;;;;;;-8.21;66.34;100440.47;677752;29;1312;-77
2022/12/16 00:28:28;;;;;;;59.72;31.95;;;;;;;-8.20;66.22;100448.22;677668;29;970;-77
2022/12/16 00:28:49;;;;;;;56.33;31.13;;;;;;;-8.15;66.59;100446.13;677739;29;1160;-77
2022/12/16 00:29:10;;;;;;;56.20;31.25;;;;;;;-8.19;66.53;100439.84;677762;29;1390;-77
2022/12/16 00:29:30;;;;;;;56.28;31.58;;;;;;;-8.24;66.58;100435.09;680363;29;1081;-77
2022/12/16 00:29:51;;;;;;;57.42;32.30;;;;;;;-8.17;66.60;100457.75;675123;29;1030;-77
2022/12/16 00:30:12;;;;;;;55.43;32.33;;;;;;;-8.25;66.45;100443.44;680314;29;1378;-78
2022/12/16 00:30:33;;;;;;;54.10;31.90;;;;;;;-8.26;66.47;100441.66;680365;29;1007;-78
2022/12/16 00:30:55;;;;;;;52.43;31.30;;;;;;;-8.26;66.61;100436.59;677781;29;1284;-77
2022/12/16 00:31:15;;;;;;;53.22;31.28;;;;;;;-8.24;66.49;100445.22;680305;29;1198;-77
2022/12/16 00:31:36;;;;;;;52.90;31.27;;;;;;;-8.21;66.60;100450.63;680341;29;1029;-78
2022/12/16 00:31:56;;;;;;;55.03;32.00;;;;;;;-8.28;66.33;100439.88;680477;29;685;-77
2022/12/16 00:32:17;;;;;;;56.83;32.17;;;;;;;-8.22;66.35;100456.38;677587;29;1168;-77
2022/12/16 00:32:37;;;;;;;60.70;32.67;;;;;;;-8.19;66.64;100457.59;680286;29;1081;-77
2022/12/16 00:32:58;;;;;;;60.42;32.35;;;;;;;-8.23;66.58;100452.06;675247;29;776;-77
2022/12/16 00:33:20;;;;;;;57.95;31.05;;;;;;;-8.13;66.54;100469.97;675442;29;1119;-77
2022/12/16 00:33:41;;;;;;;53.78;30.38;;;;;;;-8.15;66.36;100457.16;680318;29;1123;-77
2022/12/16 00:34:02;;;;;;;51.47;29.83;;;;;;;-8.28;66.62;100434.81;678298;29;1262;-77
2022/12/16 00:34:22;;;;;;;52.40;30.50;;;;;;;-8.20;66.26;100457.47;680792;29;1183;-77
2022/12/16 00:34:43;;;;;;;51.70;30.13;;;;;;;-8.19;66.52;100465.19;680977;29;988;-77
2022/12/16 00:35:04;;;;;;;51.35;29.92;;;;;;;-8.23;65.98;100454.59;677710;29;1185;-77
2022/12/16 00:35:24;;;;;;;50.72;29.50;;;;;;;-8.29;66.34;100449.84;672551;29;1224;-77
2022/12/16 00:35:45;;;;;;;52.42;30.80;;;;;;;-8.21;66.34;100455.69;672560;29;986;-78
2022/12/16 00:36:06;;;;;;;55.30;31.00;;;;;;;-8.27;66.88;100455.94;675195;29;1248;-77
2022/12/16 00:36:27;;;;;;;57.20;31.08;;;;;;;-8.31;66.58;100449.69;680230;29;966;-77
2022/12/16 00:36:48;;;;;;;56.78;30.70;;;;;;;-8.31;66.70;100449.69;677424;29;1474;-77
2022/12/16 00:37:10;;;;;;;55.10;31.15;;;;;;;-8.32;66.59;100441.97;678259;29;1217;-77
2022/12/16 00:37:31;;;;;;;52.65;31.05;;;;;;;-8.33;66.51;100445.25;678003;29;1167;-78
2022/12/16 00:37:52;;;;;;;52.75;31.15;;;;;;;-8.24;66.58;100465.47;674826;29;1073;-78
2022/12/16 00:38:14;;;;;;;53.38;31.13;;;;;;;-8.31;66.81;100459.81;680354;29;1025;-77
2022/12/16 00:38:34;;;;;;;54.78;31.95;;;;;;;-8.31;66.02;100459.81;680225;29;1891;-78
2022/12/16 00:38:55;;;;;;;56.30;31.75;;;;;;;-8.31;66.67;100459.81;680397;29;1079;-77
2022/12/16 00:39:15;;;;;;;56.80;32.00;;;;;;;-8.34;66.61;100457.00;680407;29;1086;-77
2022/12/16 00:39:36;;;;;;;59.30;31.63;;;;;;;-8.32;66.63;100452.97;680275;29;1970;-77
2022/12/16 00:39:57;;;;;;;58.20;31.40;;;;;;;-8.37;66.67;100451.63;677681;29;1152;-78
2022/12/16 00:40:18;;;;;;;57.03;31.25;;;;;;;-8.39;66.83;100448.03;677685;29;1058;-77
2022/12/16 00:40:38;;;;;;;53.85;30.80;;;;;;;-8.36;66.32;100453.41;677636;29;1070;-77
2022/12/16 00:41:00;;;;;;;53.33;30.80;;;;;;;-8.31;66.81;100466.53;677868;29;804;-77
2022/12/16 00:41:20;;;;;;;53.05;30.60;;;;;;;-8.35;66.55;100457.75;675606;29;1185;-77
2022/12/16 00:41:41;;;;;;;51.70;30.83;;;;;;;-8.39;66.60;100449.69;677936;29;1349;-77
2022/12/16 00:42:01;;;;;;;54.27;31.40;;;;;;;-8.40;66.56;100448.78;681284;28;1147;-77
2022/12/16 00:42:22;;;;;;;54.00;30.60;;;;;;;-8.38;66.44;100452.38;680396;29;1206;-77
2022/12/16 00:42:43;;;;;;;54.88;30.15;;;;;;;-8.37;66.45;100470.97;680327;29;1064;-77
2022/12/16 00:43:03;;;;;;;55.30;30.38;;;;;;;-8.43;66.61;100449.38;680654;29;1250;-78
2022/12/16 00:43:24;;;;;;;53.73;31.37;;;;;;;-8.32;66.60;100470.69;680068;29;990;-77
2022/12/16 00:43:44;;;;;;;54.92;32.40;;;;;;;-8.41;66.74;100452.06;677799;29;1135;-77
2022/12/16 00:44:05;;;;;;;55.10;32.08;;;;;;;-8.39;66.77;100453.09;682967;28;1084;-77
2022/12/16 00:44:26;;;;;;;56.33;31.23;;;;;;;-8.38;66.39;100461.59;675052;29;1290;-78
2022/12/16 00:44:47;;;;;;;53.75;30.65;;;;;;;-8.38;66.73;100457.44;672579;29;952;-77
2022/12/16 00:45:07;;;;;;;52.00;31.07;;;;;;;-8.37;66.31;100459.22;672485;29;1170;-77
2022/12/16 00:45:29;;;;;;;52.13;30.95;;;;;;;-8.34;66.38;100472.19;674981;29;1305;-77
2022/12/16 00:45:50;;;;;;;51.83;30.08;;;;;;;-8.38;66.59;100461.59;677784;29;1001;-77
2022/12/16 00:46:10;;;;;;;50.65;28.67;;;;;;;-8.39;66.58;100459.81;677737;29;1184;-77
2022/12/16 00:46:31;;;;;;;51.35;29.70;;;;;;;-8.39;66.67;100465.75;680161;29;1141;-77
2022/12/16 00:46:52;;;;;;;53.60;30.50;;;;;;;-8.29;66.24;100477.69;677489;29;1133;-77
2022/12/16 00:47:12;;;;;;;57.37;31.90;;;;;;;-8.28;66.68;100485.44;677829;29;1077;-77
2022/12/16 00:47:33;;;;;;;57.83;31.70;;;;;;;-8.30;66.55;100476.81;677752;29;1093;-77
2022/12/16 00:47:53;;;;;;;56.58;31.80;;;;;;;-8.41;66.43;100459.66;675658;29;1245;-78
2022/12/16 00:48:14;;;;;;;54.97;31.40;;;;;;;-8.37;66.69;100463.38;680364;29;1186;-78
2022/12/16 00:48:35;;;;;;;53.80;31.80;;;;;;;-8.40;66.51;100463.97;680667;29;1244;-77
2022/12/16 00:48:56;;;;;;;54.93;32.53;;;;;;;-8.41;66.38;100464.72;683093;29;864;-77
2022/12/16 00:49:16;;;;;;;56.45;33.22;;;;;;;-8.32;66.56;100474.88;680329;29;1197;-78
2022/12/16 00:49:37;;;;;;;57.83;33.53;;;;;;;-8.36;66.66;100476.19;680298;29;1162;-77
2022/12/16 00:49:57;;;;;;;60.25;33.50;;;;;;;-8.43;66.50;100464.56;680711;29;863;-77
2022/12/16 00:50:19;;;;;;;58.42;32.60;;;;;;;-8.28;66.60;100485.44;683048;28;1170;-77
2022/12/16 00:50:40;;;;;;;58.97;32.15;;;;;;;-8.39;66.59;100465.75;680488;28;1193;-77
2022/12/16 00:51:01;;;;;;;57.22;32.38;;;;;;;-8.41;66.03;100462.19;683097;29;898;-77
2022/12/16 00:51:21;;;;;;;56.67;32.40;;;;;;;-8.38;66.26;100466.66;683026;29;969;-77
2022/12/16 00:51:42;;;;;;;53.35;32.15;;;;;;;-8.40;66.31;100461.44;682982;29;999;-78
2022/12/16 00:52:03;;;;;;;53.67;31.73;;;;;;;-8.41;66.47;100457.13;678222;29;1120;-78
2022/12/16 00:52:23;;;;;;;56.05;33.20;;;;;;;-8.40;66.69;100463.09;680662;29;1188;-77
2022/12/16 00:52:47;;;;;;;61.33;34.03;;;;;;;-8.42;66.57;100460.41;682992;29;1110;-78
2022/12/16 00:53:08;;;;;;;61.78;33.72;;;;;;;-8.46;66.32;100453.25;680282;29;949;-77
2022/12/16 00:53:28;;;;;;;59.83;33.00;;;;;;;-8.42;66.67;100457.88;677589;29;1160;-78
2022/12/16 00:53:49;;;;;;;54.38;31.55;;;;;;;-8.45;66.45;100450.88;677778;29;1220;-77
2022/12/16 00:54:09;;;;;;;52.25;30.60;;;;;;;-8.42;66.55;100458.78;675150;29;1043;-77
2022/12/16 00:54:30;;;;;;;50.93;30.03;;;;;;;-8.43;66.47;100462.03;677667;29;1066;-78
2022/12/16 00:54:51;;;;;;;53.87;30.60;;;;;;;-8.39;66.32;100460.69;680439;29;1075;-77
2022/12/16 00:55:12;;;;;;;52.80;30.60;;;;;;;-8.37;66.81;100464.28;680356;29;1123;-77
2022/12/16 00:55:33;;;;;;;53.95;31.17;;;;;;;-8.45;66.34;100458.47;680312;29;1181;-77
2022/12/16 00:56:13;;;;;;;57.90;32.10;;;;;;;-8.38;66.70;100466.66;675022;29;1072;-77
2022/12/16 00:56:34;;;;;;;66.85;33.58;;;;;;;-8.43;66.48;100453.56;674970;29;1003;-77
2022/12/16 00:56:55;;;;;;;66.18;34.22;;;;;;;-8.41;66.66;100457.13;672625;29;1106;-77
2022/12/16 00:57:15;;;;;;;62.60;33.90;;;;;;;-8.40;66.46;100460.56;672457;29;1206;-78
2022/12/16 00:57:36;;;;;;;60.50;34.13;;;;;;;-8.34;66.34;100467.13;675056;29;1212;-77
2022/12/16 00:57:57;;;;;;;60.90;33.90;;;;;;;-8.36;66.41;100461.00;670088;29;737;-78
2022/12/16 00:58:17;;;;;;;62.53;34.50;;;;;;;-8.38;66.11;100457.44;669969;29;931;-78
2022/12/16 00:58:38;;;;;;;61.85;34.88;;;;;;;-8.31;66.66;100469.94;672433;29;1258;-77
2022/12/16 00:58:59;;;;;;;61.67;34.95;;;;;;;-8.42;66.28;100455.34;672639;29;871;-77
2022/12/16 00:59:19;;;;;;;60.83;34.90;;;;;;;-8.38;66.42;100462.50;672613;29;1007;-77
2022/12/16 00:59:40;;;;;;;61.97;33.40;;;;;;;-8.41;66.27;100459.66;672266;29;1908;-77
2022/12/16 01:00:04;;;;;;;63.50;33.58;;;;;;;-8.28;66.50;100484.53;672566;29;1317;-78
2022/12/16 01:00:25;;;;;;;62.90;33.90;;;;;;;-8.42;66.47;100460.41;672420;29;1091;-77
2022/12/16 01:00:45;;;;;;;64.47;34.53;;;;;;;-8.37;66.99;100471.88;672632;29;1015;-77
2022/12/16 01:01:06;;;;;;;62.83;33.65;;;;;;;-8.30;66.65;100480.97;677689;29;1041;-77
2022/12/16 01:01:27;;;;;;;61.85;33.05;;;;;;;-8.34;66.38;100461.13;677575;29;1120;-77
2022/12/16 01:01:48;;;;;;;58.55;32.50;;;;;;;-8.31;65.90;100469.06;677579;29;1182;-77
2022/12/16 01:02:09;;;;;;;58.63;32.63;;;;;;;-8.33;66.38;100466.38;678172;29;1029;-77
2022/12/16 01:02:30;;;;;;;58.88;32.88;;;;;;;-8.37;65.99;100465.91;678054;29;1162;-77
2022/12/16 01:02:51;;;;;;;59.47;32.35;;;;;;;-8.30;66.33;100481.88;677774;29;1127;-77
2022/12/16 01:03:12;;;;;;;56.90;31.50;;;;;;;-8.45;66.31;100461.00;677753;29;1138;-78
2022/12/16 01:03:33;;;;;;;55.15;31.50;;;;;;;-8.37;65.91;100466.81;678190;29;1127;-77
2022/12/16 01:03:57;;;;;;;53.72;31.30;;;;;;;-8.46;66.10;100450.69;677665;29;1099;-78
2022/12/16 01:04:17;;;;;;;54.55;30.85;;;;;;;-8.43;66.07;100453.56;675804;29;1718;-77
2022/12/16 01:04:38;;;;;;;53.53;31.05;;;;;;;-8.41;66.14;100457.13;675719;29;1114;-77
2022/12/16 01:04:58;;;;;;;54.03;31.02;;;;;;;-8.48;66.22;100450.56;677713;29;877;-78
2022/12/16 01:05:25;;;;;;;54.53;31.43;;;;;;;-8.41;66.01;100462.19;677625;29;1169;-77
2022/12/16 01:05:46;;;;;;;54.80;31.27;;;;;;;-8.48;66.29;100455.63;679250;29;1054;-78
2022/12/16 01:06:12;;;;;;;54.88;31.70;;;;;;;-8.51;66.25;100455.31;681378;29;966;-77
2022/12/16 01:06:33;;;;;;;56.67;31.60;;;;;;;-8.50;65.94;100452.06;682076;29;1026;-77
2022/12/16 01:06:53;;;;;;;55.90;31.60;;;;;;;-8.51;65.96;100454.44;679906;29;1154;-77
2022/12/16 01:07:14;;;;;;;52.83;31.27;;;;;;;-8.44;65.87;100466.97;680224;29;1125;-77
2022/12/16 01:07:35;;;;;;;54.80;30.73;;;;;;;-8.51;66.09;100454.44;680181;29;1152;-77
2022/12/16 01:07:56;;;;;;;59.53;30.70;;;;;;;-8.50;66.16;100461.28;680286;29;1062;-77
2022/12/16 01:08:17;;;;;;;60.03;30.92;;;;;;;-8.50;66.08;100461.28;677932;29;1338;-78
2022/12/16 01:08:37;;;;;;;57.10;31.27;;;;;;;-8.43;66.06;100458.63;679430;29;1172;-78
2022/12/16 01:08:58;;;;;;;54.42;31.55;;;;;;;-8.42;65.69;100450.28;675081;29;936;-78
2022/12/16 01:09:19;;;;;;;53.70;30.83;;;;;;;-8.30;66.10;100465.78;672461;29;1196;-77
2022/12/16 01:09:39;;;;;;;53.85;30.75;;;;;;;-8.33;66.13;100456.25;672337;29;1152;-77
2022/12/16 01:10:00;;;;;;;53.60;30.20;;;;;;;-8.37;66.13;100446.56;672496;29;872;-77
2022/12/16 01:10:23;;;;;;;51.80;30.50;;;;;;;-8.30;66.02;100461.63;675027;29;1063;-77
2022/12/16 01:10:55;;;;;;;52.10;30.50;;;;;;;-8.28;65.37;100459.22;674999;29;1052;-77
2022/12/16 01:11:18;;;;;;;52.60;30.83;;;;;;;-8.21;65.70;100471.75;672388;29;2129;-77
2022/12/16 01:11:38;;;;;;;55.33;31.88;;;;;;;-8.33;65.92;100451.19;672377;29;1197;-78
2022/12/16 01:11:59;;;;;;;58.15;31.33;;;;;;;-8.29;65.46;100454.91;672624;29;761;-77
2022/12/16 01:12:20;;;;;;;58.33;31.60;;;;;;;-8.21;65.42;100465.81;674863;29;1076;-77
2022/12/16 01:12:40;;;;;;;55.67;30.83;;;;;;;-8.23;65.39;100458.03;674983;29;1240;-77
2022/12/16 01:13:01;;;;;;;54.42;31.00;;;;;;;-8.29;65.46;100445.69;678195;29;745;-77
2022/12/16 01:13:23;;;;;;;56.05;31.33;;;;;;;-8.25;65.71;100456.09;677582;29;1329;-77
2022/12/16 01:13:49;;;;;;;53.25;30.83;;;;;;;-8.27;65.69;100450.88;680258;29;1211;-77
2022/12/16 01:14:09;;;;;;;52.25;30.23;;;;;;;-8.26;65.44;100446.72;680355;29;983;-77
2022/12/16 01:14:30;;;;;;;52.45;29.80;;;;;;;-8.22;65.43;100456.38;672367;29;1242;-77
2022/12/16 01:14:51;;;;;;;55.03;30.80;;;;;;;-8.14;65.74;100470.72;672416;29;1168;-77
2022/12/16 01:15:13;;;;;;;56.40;30.90;;;;;;;-8.25;65.33;100448.50;672527;29;985;-77
2022/12/16 01:15:36;;;;;;;56.03;30.63;;;;;;;-8.20;65.34;100460.00;674918;29;1414;-77
2022/12/16 01:16:02;;;;;;;57.47;29.52;;;;;;;-8.22;65.64;100459.84;675175;29;828;-77
2022/12/16 01:16:23;;;;;;;59.00;30.00;;;;;;;-8.24;65.12;100452.81;676583;29;1196;-77
2022/12/16 01:16:44;;;;;;;54.60;30.47;;;;;;;-8.21;65.22;100459.09;678934;29;1184;-77
2022/12/16 01:17:04;;;;;;;55.60;31.52;;;;;;;-8.13;65.50;100464.91;675127;29;1055;-78
2022/12/16 01:17:26;;;;;;;54.47;31.20;;;;;;;-8.22;65.77;100458.91;676325;29;1134;-77
2022/12/16 01:17:46;;;;;;;54.85;30.63;;;;;;;-8.18;65.58;100459.41;674929;29;1214;-78
2022/12/16 01:18:07;;;;;;;54.22;31.08;;;;;;;-8.06;65.45;100467.31;675021;29;1149;-77
2022/12/16 01:18:34;;;;;;;54.35;31.58;;;;;;;-8.10;65.28;100475.31;677575;29;1160;-77
2022/12/16 01:18:55;;;;;;;56.00;31.98;;;;;;;-8.15;65.14;100461.31;677709;29;1191;-77
2022/12/16 01:19:15;;;;;;;57.67;31.75;;;;;;;-8.09;65.04;100471.16;677743;29;1191;-78
2022/12/16 01:19:36;;;;;;;54.88;30.25;;;;;;;-8.18;65.17;100461.03;680148;29;1896;-77
2022/12/16 01:19:56;;;;;;;53.60;29.93;;;;;;;-8.19;65.73;100462.66;675157;29;1433;-77
2022/12/16 01:20:17;;;;;;;53.35;29.92;;;;;;;-8.17;65.07;100462.81;678709;29;1093;-77
2022/12/16 01:20:38;;;;;;;56.60;30.23;;;;;;;-8.19;65.32;100457.59;677534;29;1145;-77
2022/12/16 01:21:07;;;;;;;58.70;30.20;;;;;;;-8.24;65.24;100450.28;677682;29;897;-77
2022/12/16 01:21:27;;;;;;;57.22;30.17;;;;;;;-8.18;65.23;100466.09;677660;29;1054;-77
2022/12/16 01:21:48;;;;;;;58.07;29.87;;;;;;;-8.22;65.27;100451.31;679018;29;873;-77
2022/12/16 01:22:08;;;;;;;54.10;28.70;;;;;;;-8.12;65.03;100476.81;681802;29;997;-77
2022/12/16 01:22:31;;;;;;;54.70;28.20;;;;;;;-8.15;65.39;100471.44;681555;29;1090;-77
2022/12/16 01:22:52;;;;;;;49.60;27.48;;;;;;;-8.20;65.29;100465.06;679274;29;1206;-77
2022/12/16 01:23:12;;;;;;;51.40;29.40;;;;;;;-8.19;65.17;100467.72;682771;28;1228;-78
2022/12/16 01:23:34;;;;;;;52.10;30.00;;;;;;;-8.21;65.07;100460.75;682819;28;1770;-77
2022/12/16 01:23:54;;;;;;;51.98;30.50;;;;;;;-8.25;65.11;100456.09;682863;28;1168;-77
2022/12/16 01:24:15;;;;;;;48.13;29.70;;;;;;;-8.15;65.07;100476.50;680323;29;1179;-77
2022/12/16 01:24:35;;;;;;;47.30;29.40;;;;;;;-8.22;64.92;100463.97;675285;29;1026;-77
2022/12/16 01:24:56;;;;;;;50.53;29.80;;;;;;;-8.21;65.09;100466.69;675085;29;910;-77
2022/12/16 01:25:16;;;;;;;51.33;29.60;;;;;;;-8.11;64.95;100488.75;675071;29;928;-78
2022/12/16 01:25:37;;;;;;;51.50;29.48;;;;;;;-8.26;65.12;100459.38;675053;29;1118;-77
2022/12/16 01:25:59;;;;;;;52.97;29.45;;;;;;;-8.21;64.79;100465.81;675271;29;1038;-77
2022/12/16 01:26:20;;;;;;;54.00;30.10;;;;;;;-8.22;64.88;100469.06;672933;29;2006;-77
2022/12/16 01:26:41;;;;;;;54.38;30.35;;;;;;;-8.22;64.75;100475.03;672276;29;1139;-78
2022/12/16 01:27:02;;;;;;;52.97;29.65;;;;;;;-8.23;64.77;100472.31;674438;29;1063;-77
2022/12/16 01:27:23;;;;;;;52.45;28.67;;;;;;;-8.23;64.71;100467.25;672446;29;1168;-77
2022/12/16 01:27:43;;;;;;;50.03;28.00;;;;;;;-8.23;64.87;100472.31;672491;29;1060;-77
2022/12/16 01:28:04;;;;;;;50.42;27.85;;;;;;;-8.19;64.91;100476.97;672504;29;1071;-78
2022/12/16 01:28:26;;;;;;;50.70;28.40;;;;;;;-8.19;64.93;100479.50;675043;29;1074;-77
2022/12/16 01:28:47;;;;;;;49.65;28.40;;;;;;;-8.21;64.91;100481.88;674971;29;1117;-77
2022/12/16 01:29:08;;;;;;;49.03;29.55;;;;;;;-8.27;64.48;100471.13;675559;29;1043;-78
2022/12/16 01:29:28;;;;;;;48.03;29.15;;;;;;;-8.28;65.20;100470.25;676959;29;1259;-77
2022/12/16 01:29:49;;;;;;;53.13;29.30;;;;;;;-8.30;65.07;100471.75;675022;29;1097;-78
2022/12/16 01:30:12;;;;;;;51.35;28.00;;;;;;;-8.22;64.63;100484.25;675184;29;1201;-77
2022/12/16 01:30:32;;;;;;;48.08;27.50;;;;;;;-8.27;65.09;100476.19;675053;29;1015;-77
2022/12/16 01:31:02;;;;;;;47.92;27.42;;;;;;;-8.34;64.92;100469.66;676293;29;1122;-77
2022/12/16 01:31:23;;;;;;;47.95;27.17;;;;;;;-8.30;64.84;100479.34;675784;29;1019;-77
2022/12/16 01:31:44;;;;;;;46.50;27.20;;;;;;;-8.29;65.00;100483.66;679397;29;969;-77
2022/12/16 01:32:05;;;;;;;44.47;26.23;;;;;;;-8.29;64.78;100488.72;682195;29;1118;-78
2022/12/16 01:32:25;;;;;;;45.33;26.23;;;;;;;-8.34;64.91;100471.28;680268;29;1349;-77
2022/12/16 01:32:46;;;;;;;46.90;25.90;;;;;;;-8.32;64.99;100480.81;675037;29;1316;-77
2022/12/16 01:33:08;;;;;;;50.73;26.53;;;;;;;-8.29;64.83;100482.75;675111;29;1048;-78
2022/12/16 01:33:31;;;;;;;50.05;26.55;;;;;;;-8.34;65.07;100473.81;677622;29;1198;-78
2022/12/16 01:33:51;;;;;;;49.60;27.00;;;;;;;-8.25;65.20;100474.75;680382;29;1083;-78
2022/12/16 01:34:12;;;;;;;49.22;27.05;;;;;;;-8.12;65.00;100486.97;682741;28;1053;-77
2022/12/16 01:34:32;;;;;;;49.47;27.40;;;;;;;-8.19;64.94;100489.63;677444;29;1097;-77
2022/12/16 01:34:54;;;;;;;47.60;27.20;;;;;;;-8.24;64.47;100480.69;678365;29;1002;-77
2022/12/16 01:35:14;;;;;;;45.40;26.55;;;;;;;-8.26;64.60;100488.13;682900;29;1163;-78
2022/12/16 01:35:35;;;;;;;45.40;26.00;;;;;;;-8.24;64.69;100488.28;680152;29;1097;-77
2022/12/16 01:36:01;;;;;;;48.07;26.50;;;;;;;-8.18;64.38;100506.59;677618;29;1036;-77
2022/12/16 01:36:22;;;;;;;48.13;26.75;;;;;;;-8.32;64.85;100482.47;676023;29;1145;-77
2022/12/16 01:36:42;;;;;;;46.33;26.63;;;;;;;-8.33;65.06;100481.56;677447;29;1424;-77
2022/12/16 01:37:03;;;;;;;44.60;26.50;;;;;;;-8.30;64.91;100486.94;674889;29;1125;-77
2022/12/16 01:37:24;;;;;;;44.20;26.95;;;;;;;-8.37;64.68;100474.41;675094;29;1063;-77
2022/12/16 01:37:44;;;;;;;46.25;27.52;;;;;;;-8.38;64.31;100479.31;672395;29;1199;-78
2022/12/16 01:38:05;;;;;;;47.10;27.27;;;;;;;-8.33;64.62;100491.69;675000;29;1204;-78
2022/12/16 01:38:25;;;;;;;48.87;27.53;;;;;;;-8.23;64.81;100505.25;674172;29;1225;-77
2022/12/16 01:38:46;;;;;;;50.00;27.75;;;;;;;-8.35;65.02;100482.13;675112;29;1188;-77
2022/12/16 01:39:09;;;;;;;49.95;27.98;;;;;;;-8.38;64.74;100482.75;675010;29;1107;-77
2022/12/16 01:39:30;;;;;;;50.83;28.10;;;;;;;-8.31;64.77;100492.72;672063;29;1927;-77